createdAt,value
2017-05-18T00:00:49.699Z,0
2017-05-18T00:01:35.108Z,0
2017-05-18T00:02:35.141Z,0
2017-05-18T00:03:34.557Z,0
2017-05-18T00:04:35.188Z,0
2017-05-18T00:05:35.211Z,0
2017-05-18T00:06:35.234Z,0
2017-05-18T00:07:34.352Z,0
2017-05-18T00:08:34.981Z,0
2017-05-18T00:09:35.317Z,0
2017-05-18T00:10:35.332Z,0
2017-05-18T00:11:49.977Z,0
2017-05-18T00:12:35.384Z,0
2017-05-18T00:13:35.413Z,0
2017-05-18T00:14:35.437Z,0
2017-05-18T00:15:50.078Z,0
2017-05-18T00:16:50.101Z,0
2017-05-18T00:17:35.209Z,0
2017-05-18T00:18:35.540Z,0
2017-05-18T00:19:35.276Z,0
2017-05-18T00:20:35.288Z,0
2017-05-18T00:21:35.609Z,0
2017-05-18T00:22:35.637Z,0
2017-05-18T00:23:50.281Z,0
2017-05-18T00:24:35.692Z,0
2017-05-18T00:25:35.407Z,0
2017-05-18T00:26:35.435Z,0
2017-05-18T00:27:35.761Z,0
2017-05-18T00:28:35.792Z,0
2017-05-18T00:29:35.821Z,0
2017-05-18T00:30:35.840Z,0
2017-05-18T00:31:35.868Z,0
2017-05-18T00:32:50.505Z,0
2017-05-18T00:34:35.637Z,0
2017-05-18T00:35:35.659Z,0
2017-05-18T00:36:35.989Z,0
2017-05-18T00:37:35.758Z,0
2017-05-18T00:38:35.745Z,0
2017-05-18T00:39:36.060Z,0
2017-05-18T00:40:50.705Z,0
2017-05-18T00:41:35.808Z,0
2017-05-18T00:42:35.835Z,0
2017-05-18T00:43:36.170Z,0
2017-05-18T00:44:36.193Z,0
2017-05-18T00:45:50.831Z,0
2017-05-18T00:46:50.856Z,0
2017-05-18T00:47:36.265Z,0
2017-05-18T00:48:50.909Z,0
2017-05-18T00:49:50.926Z,0
2017-05-18T00:50:36.337Z,0
2017-05-18T00:51:36.363Z,0
2017-05-18T00:53:36.414Z,0
2017-05-18T00:54:36.435Z,0
2017-05-18T00:55:36.159Z,0
2017-05-18T00:56:36.499Z,0
2017-05-18T00:57:36.517Z,0
2017-05-18T00:58:36.542Z,0
2017-05-18T00:59:36.561Z,0
2017-05-18T01:00:51.205Z,0
2017-05-18T01:01:36.609Z,0
2017-05-18T01:02:36.647Z,0
2017-05-18T01:05:51.324Z,0
2017-05-18T01:06:36.743Z,0
2017-05-18T01:07:36.771Z,0
2017-05-18T01:08:36.787Z,0
2017-05-18T01:09:51.476Z,0
2017-05-18T01:10:36.838Z,0
2017-05-18T01:11:51.480Z,0
2017-05-18T01:12:36.884Z,0
2017-05-18T01:13:36.920Z,0
2017-05-18T01:14:36.632Z,0
2017-05-18T01:15:36.960Z,0
2017-05-18T01:16:36.983Z,0
2017-05-18T01:17:37.009Z,0
2017-05-18T01:18:37.035Z,0
2017-05-18T01:19:51.690Z,0
2017-05-18T01:20:37.083Z,0
2017-05-18T01:21:37.110Z,0
2017-05-18T01:22:37.137Z,0
2017-05-18T01:23:37.163Z,0
2017-05-18T01:24:37.183Z,0
2017-05-18T01:25:51.825Z,0
2017-05-18T01:26:37.229Z,0
2017-05-18T01:27:37.257Z,0
2017-05-18T01:28:37.285Z,0
2017-05-18T01:29:37.313Z,0
2017-05-18T01:30:37.331Z,0
2017-05-18T01:31:37.395Z,0
2017-05-18T01:32:37.385Z,0
2017-05-18T01:33:52.022Z,0
2017-05-18T01:34:37.132Z,0
2017-05-18T01:35:52.128Z,0
2017-05-18T01:36:37.485Z,0
2017-05-18T01:37:37.204Z,0
2017-05-18T01:39:37.557Z,0
2017-05-18T01:40:37.332Z,0
2017-05-18T01:41:37.602Z,0
2017-05-18T01:42:52.252Z,0
2017-05-18T01:43:37.702Z,0
2017-05-18T01:44:37.685Z,0
2017-05-18T01:45:52.316Z,0
2017-05-18T01:46:37.427Z,0
2017-05-18T01:47:37.448Z,0
2017-05-18T01:48:37.778Z,0
2017-05-18T01:49:37.795Z,0
2017-05-18T01:50:37.831Z,0
2017-05-18T01:51:52.469Z,0
2017-05-18T01:52:37.569Z,0
2017-05-18T01:53:37.904Z,0
2017-05-18T01:54:37.921Z,0
2017-05-18T01:56:37.974Z,0
2017-05-18T01:57:37.996Z,0
2017-05-18T01:58:38.020Z,0
2017-05-18T01:59:52.663Z,0
2017-05-18T02:00:38.068Z,0
2017-05-18T02:01:37.793Z,0
2017-05-18T02:02:38.122Z,0
2017-05-18T02:03:52.459Z,0
2017-05-18T02:04:37.868Z,0
2017-05-18T02:05:37.890Z,0
2017-05-18T02:06:37.919Z,0
2017-05-18T02:08:37.658Z,0
2017-05-18T02:09:38.297Z,0
2017-05-18T02:11:38.043Z,0
2017-05-18T02:12:37.756Z,0
2017-05-18T02:13:38.092Z,0
2017-05-18T02:14:38.415Z,0
2017-05-18T02:15:53.055Z,0
2017-05-18T02:16:53.082Z,0
2017-05-18T02:17:38.188Z,0
2017-05-18T02:18:38.213Z,0
2017-05-18T02:19:38.540Z,0
2017-05-18T02:20:38.563Z,0
2017-05-18T02:21:38.287Z,0
2017-05-18T02:22:38.305Z,0
2017-05-18T02:23:53.250Z,0
2017-05-18T02:25:38.684Z,0
2017-05-18T02:26:38.709Z,0
2017-05-18T02:27:38.732Z,0
2017-05-18T02:28:38.213Z,0
2017-05-18T02:29:38.786Z,0
2017-05-18T02:30:38.803Z,0
2017-05-18T02:31:38.828Z,0
2017-05-18T02:32:38.856Z,0
2017-05-18T02:33:53.494Z,0
2017-05-18T02:34:53.514Z,0
2017-05-18T02:35:53.542Z,0
2017-05-18T02:36:38.951Z,0
2017-05-18T02:37:38.977Z,0
2017-05-18T02:38:53.614Z,0
2017-05-18T02:39:39.024Z,0
2017-05-18T02:42:39.098Z,0
2017-05-18T02:43:39.120Z,0
2017-05-18T02:44:39.147Z,0
2017-05-18T02:45:39.170Z,0
2017-05-18T02:46:39.193Z,0
2017-05-18T02:47:39.217Z,0
2017-05-18T02:48:39.254Z,0
2017-05-18T02:49:39.264Z,0
2017-05-18T02:50:53.908Z,0
2017-05-18T02:51:53.980Z,0
2017-05-18T02:52:39.343Z,0
2017-05-18T02:53:53.980Z,0
2017-05-18T02:54:39.394Z,0
2017-05-18T02:57:39.462Z,0
2017-05-18T02:58:39.481Z,0
2017-05-18T02:59:39.209Z,5
2017-05-18T03:00:39.532Z,5
2017-05-18T03:01:39.560Z,5
2017-05-18T03:02:54.198Z,5
2017-05-18T03:03:54.223Z,5
2017-05-18T03:04:39.326Z,5
2017-05-18T03:05:39.659Z,5
2017-05-18T03:06:39.678Z,5
2017-05-18T03:07:54.319Z,5
2017-05-18T03:08:39.424Z,5
2017-05-18T03:09:39.751Z,5
2017-05-18T03:10:54.093Z,10
2017-05-18T03:11:39.800Z,10
2017-05-18T03:13:39.851Z,10
2017-05-18T03:14:39.872Z,10
2017-05-18T03:15:39.897Z,10
2017-05-18T03:16:39.917Z,15
2017-05-18T03:17:39.949Z,15
2017-05-18T03:18:39.969Z,15
2017-05-18T03:19:39.690Z,15
2017-05-18T03:20:40.011Z,15
2017-05-18T03:21:54.654Z,15
2017-05-18T03:22:40.064Z,20
2017-05-18T03:23:54.706Z,20
2017-05-18T03:24:40.112Z,20
2017-05-18T03:25:40.132Z,20
2017-05-18T03:26:54.780Z,20
2017-05-18T03:27:40.188Z,25
2017-05-18T03:29:39.933Z,25
2017-05-18T03:30:40.255Z,25
2017-05-18T03:31:40.280Z,25
2017-05-18T03:32:40.305Z,30
2017-05-18T03:33:40.327Z,30
2017-05-18T03:34:40.355Z,30
2017-05-18T03:35:40.431Z,30
2017-05-18T03:36:40.397Z,35
2017-05-18T03:37:40.425Z,35
2017-05-18T03:38:55.065Z,35
2017-05-18T03:39:40.470Z,35
2017-05-18T03:41:40.528Z,40
2017-05-18T03:42:55.160Z,40
2017-05-18T03:43:40.568Z,40
2017-05-18T03:44:40.607Z,45
2017-05-18T03:45:40.614Z,50
2017-05-18T03:47:40.673Z,55
2017-05-18T03:48:40.690Z,50
2017-05-18T03:49:40.712Z,50
2017-05-18T03:51:40.456Z,55
2017-05-18T03:52:55.400Z,60
2017-05-18T03:53:40.808Z,70
2017-05-18T03:54:55.448Z,100
2017-05-18T03:55:40.554Z,85
2017-05-18T03:57:40.906Z,85
2017-05-18T03:58:55.552Z,70
2017-05-18T03:59:40.952Z,70
2017-05-18T04:00:40.675Z,105
2017-05-18T04:01:40.703Z,115
2017-05-18T04:02:40.725Z,75
2017-05-18T04:03:41.059Z,90
2017-05-18T04:04:41.078Z,115
2017-05-18T04:05:41.096Z,95
2017-05-18T04:06:40.823Z,75
2017-05-18T04:07:55.762Z,75
2017-05-18T04:08:55.788Z,85
2017-05-18T04:09:41.195Z,85
2017-05-18T04:10:55.837Z,115
2017-05-18T04:12:41.271Z,115
2017-05-18T04:13:55.909Z,135
2017-05-18T04:14:41.322Z,150
2017-05-18T04:15:41.354Z,135
2017-05-18T04:16:41.369Z,100
2017-05-18T04:17:41.389Z,105
2017-05-18T04:18:41.419Z,100
2017-05-18T04:19:41.139Z,115
2017-05-18T04:20:41.160Z,105
2017-05-18T04:21:41.535Z,100
2017-05-18T04:22:41.517Z,95
2017-05-18T04:23:41.546Z,95
2017-05-18T04:24:41.569Z,95
2017-05-18T04:25:41.583Z,100
2017-05-18T04:26:41.607Z,100
2017-05-18T04:27:41.641Z,100
2017-05-18T04:28:41.675Z,105
2017-05-18T04:29:41.688Z,105
2017-05-18T04:30:41.704Z,105
2017-05-18T04:31:41.735Z,105
2017-05-18T04:32:41.757Z,110
2017-05-18T04:33:41.782Z,110
2017-05-18T04:34:41.811Z,115
2017-05-18T04:35:41.831Z,115
2017-05-18T04:36:41.851Z,115
2017-05-18T04:37:41.893Z,115
2017-05-18T04:38:41.910Z,120
2017-05-18T04:39:41.924Z,140
2017-05-18T04:40:56.566Z,380
2017-05-18T04:41:41.974Z,610
2017-05-18T04:42:42.006Z,780
2017-05-18T04:43:56.641Z,990
2017-05-18T04:44:42.053Z,1035
2017-05-18T04:45:56.689Z,1100
2017-05-18T04:46:42.102Z,1075
2017-05-18T04:47:42.153Z,1045
2017-05-18T04:49:41.870Z,1090
2017-05-18T04:50:42.209Z,1065
2017-05-18T04:51:42.230Z,1060
2017-05-18T04:52:42.259Z,1055
2017-05-18T04:53:42.297Z,1085
2017-05-18T04:54:42.320Z,1130
2017-05-18T04:55:57.016Z,1165
2017-05-18T04:56:56.985Z,1195
2017-05-18T04:57:42.400Z,1200
2017-05-18T04:58:57.046Z,1175
2017-05-18T04:59:42.454Z,1205
2017-05-18T05:00:42.483Z,1210
2017-05-18T05:01:57.136Z,1170
2017-05-18T05:02:42.552Z,1195
2017-05-18T05:03:42.582Z,1205
2017-05-18T05:04:42.309Z,1215
2017-05-18T05:05:42.645Z,1200
2017-05-18T05:06:42.669Z,1155
2017-05-18T05:07:42.704Z,1170
2017-05-18T05:08:42.734Z,1210
2017-05-18T05:09:42.766Z,1245
2017-05-18T05:10:42.798Z,1235
2017-05-18T05:11:42.834Z,1275
2017-05-18T05:12:42.866Z,1330
2017-05-18T05:13:42.903Z,1280
2017-05-18T05:14:57.548Z,1315
2017-05-18T05:15:42.962Z,1305
2017-05-18T05:16:43.051Z,1315
2017-05-18T05:17:57.348Z,1305
2017-05-18T05:18:43.066Z,1335
2017-05-18T05:19:43.099Z,1365
2017-05-18T05:20:43.134Z,1325
2017-05-18T05:22:43.255Z,1320
2017-05-18T05:23:43.237Z,1370
2017-05-18T05:24:57.898Z,1395
2017-05-18T05:25:43.304Z,1390
2017-05-18T05:26:43.351Z,1365
2017-05-18T05:27:43.381Z,1400
2017-05-18T05:28:43.414Z,1360
2017-05-18T05:29:43.448Z,1325
2017-05-18T05:30:43.484Z,1355
2017-05-18T05:31:58.140Z,1325
2017-05-18T05:32:43.556Z,1330
2017-05-18T05:34:57.949Z,1395
2017-05-18T05:35:43.358Z,1370
2017-05-18T05:36:43.705Z,1330
2017-05-18T05:37:43.740Z,1340
2017-05-18T05:38:43.468Z,1350
2017-05-18T05:39:43.808Z,1335
2017-05-18T05:40:43.540Z,1310
2017-05-18T05:41:43.881Z,1300
2017-05-18T05:42:43.625Z,1335
2017-05-18T05:43:43.956Z,1385
2017-05-18T05:44:58.658Z,1350
2017-05-18T05:45:44.028Z,1380
2017-05-18T05:46:44.066Z,1385
2017-05-18T05:47:44.109Z,1290
2017-05-18T05:48:58.761Z,1355
2017-05-18T05:49:43.878Z,1365
2017-05-18T05:50:44.212Z,1385
2017-05-18T05:51:44.253Z,1375
2017-05-18T05:52:44.293Z,1365
2017-05-18T05:53:44.383Z,1345
2017-05-18T05:54:58.994Z,1360
2017-05-18T05:55:44.403Z,1385
2017-05-18T05:56:44.439Z,1390
2017-05-18T05:57:44.181Z,1360
2017-05-18T05:58:44.212Z,1340
2017-05-18T05:59:59.177Z,1325
2017-05-18T06:00:44.592Z,1305
2017-05-18T06:01:59.259Z,1330
2017-05-18T06:02:44.672Z,1345
2017-05-18T06:03:44.705Z,1335
2017-05-18T06:04:44.747Z,1305
2017-05-18T06:05:44.780Z,1385
2017-05-18T06:07:44.856Z,1325
2017-05-18T06:08:44.922Z,1325
2017-05-18T06:09:44.932Z,1350
2017-05-18T06:10:44.968Z,1305
2017-05-18T06:11:44.705Z,1340
2017-05-18T06:12:45.053Z,1370
2017-05-18T06:13:45.389Z,1360
2017-05-18T06:14:45.122Z,1345
2017-05-18T06:15:45.157Z,1375
2017-05-18T06:16:45.197Z,1335
2017-05-18T06:17:45.239Z,1315
2017-05-18T06:18:45.276Z,1340
2017-05-18T06:19:45.312Z,1340
2017-05-18T06:20:59.975Z,1325
2017-05-18T06:21:45.089Z,1310
2017-05-18T06:22:45.434Z,1305
2017-05-18T06:23:45.474Z,1315
2017-05-18T06:24:45.504Z,1320
2017-05-18T06:25:45.543Z,1350
2017-05-18T06:26:45.586Z,1320
2017-05-18T06:28:00.245Z,1215
2017-05-18T06:28:45.366Z,1280
2017-05-18T06:30:00.324Z,1285
2017-05-18T06:30:45.745Z,1290
2017-05-18T06:32:45.825Z,1265
2017-05-18T06:34:00.477Z,1215
2017-05-18T06:35:00.514Z,1210
2017-05-18T06:36:00.552Z,1270
2017-05-18T06:37:00.593Z,1280
2017-05-18T06:37:46.017Z,1260
2017-05-18T06:39:45.785Z,1235
2017-05-18T06:40:45.825Z,1210
2017-05-18T06:41:46.185Z,1170
2017-05-18T06:42:45.909Z,1115
2017-05-18T06:43:46.242Z,1060
2017-05-18T06:44:46.285Z,1065
2017-05-18T06:45:45.720Z,1070
2017-05-18T06:46:46.366Z,1050
2017-05-18T06:47:46.396Z,1010
2017-05-18T06:49:01.058Z,945
2017-05-18T06:49:46.475Z,925
2017-05-18T06:50:46.216Z,895
2017-05-18T06:51:46.249Z,865
2017-05-18T06:53:01.214Z,825
2017-05-18T06:53:46.639Z,785
2017-05-18T06:54:46.671Z,735
2017-05-18T06:55:46.405Z,710
2017-05-18T06:56:46.751Z,700
2017-05-18T06:58:46.523Z,645
2017-05-18T06:59:46.866Z,615
2017-05-18T07:00:46.904Z,600
2017-05-18T07:01:46.942Z,590
2017-05-18T07:02:46.990Z,590
2017-05-18T07:04:47.061Z,595
2017-05-18T07:05:47.096Z,585
2017-05-18T07:07:01.804Z,600
2017-05-18T07:07:47.175Z,600
2017-05-18T07:09:47.251Z,675
2017-05-18T07:10:47.289Z,825
2017-05-18T07:11:47.327Z,1255
2017-05-18T07:12:47.366Z,1660
2017-05-18T07:13:47.406Z,1855
2017-05-18T07:14:47.446Z,1750
2017-05-18T07:15:47.484Z,1345
2017-05-18T07:17:02.142Z,1165
2017-05-18T07:18:02.182Z,1170
2017-05-18T07:18:47.600Z,1145
2017-05-18T07:20:16.879Z,1175
2017-05-18T07:21:02.299Z,1190
2017-05-18T07:21:47.718Z,1185
2017-05-18T07:22:47.763Z,1195
2017-05-18T07:24:47.841Z,1170
2017-05-18T07:25:47.869Z,1135
2017-05-18T07:26:47.909Z,1105
2017-05-18T07:28:02.575Z,1025
2017-05-18T07:28:47.997Z,1015
2017-05-18T07:29:48.033Z,1050
2017-05-18T07:30:48.067Z,1060
2017-05-18T07:32:02.735Z,1020
2017-05-18T07:33:02.764Z,1010
2017-05-18T07:33:48.188Z,1010
2017-05-18T07:35:02.847Z,1015
2017-05-18T07:36:17.502Z,995
2017-05-18T07:36:48.309Z,980
2017-05-18T07:37:48.341Z,970
2017-05-18T07:38:48.387Z,950
2017-05-18T07:39:48.122Z,920
2017-05-18T07:40:48.457Z,905
2017-05-18T07:41:48.501Z,935
2017-05-18T07:42:48.545Z,955
2017-05-18T07:43:48.577Z,925
2017-05-18T07:45:48.655Z,905
2017-05-18T07:47:03.312Z,915
2017-05-18T07:47:48.733Z,915
2017-05-18T07:48:48.770Z,885
2017-05-18T07:49:48.807Z,885
2017-05-18T07:50:48.845Z,855
2017-05-18T07:52:18.126Z,835
2017-05-18T07:54:49.001Z,775
2017-05-18T07:56:03.667Z,755
2017-05-18T07:56:49.077Z,760
2017-05-18T07:57:49.119Z,755
2017-05-18T07:58:49.162Z,735
2017-05-18T07:59:49.195Z,745
2017-05-18T08:00:49.233Z,740
2017-05-18T08:02:03.967Z,735
2017-05-18T08:03:03.628Z,725
2017-05-18T08:03:49.353Z,725
2017-05-18T08:04:49.442Z,730
2017-05-18T08:05:49.426Z,720
2017-05-18T08:07:49.200Z,700
2017-05-18T08:08:49.314Z,670
2017-05-18T08:10:49.624Z,635
2017-05-18T08:12:04.342Z,645
2017-05-18T08:12:49.693Z,625
2017-05-18T08:13:49.743Z,610
2017-05-18T08:14:49.777Z,610
2017-05-18T08:15:49.511Z,590
2017-05-18T08:16:49.852Z,570
2017-05-18T08:18:04.513Z,570
2017-05-18T08:18:49.924Z,560
2017-05-18T08:19:49.658Z,545
2017-05-18T08:21:04.617Z,535
2017-05-18T08:21:50.037Z,530
2017-05-18T08:22:50.075Z,525
2017-05-18T08:23:49.810Z,515
2017-05-18T08:24:50.151Z,510
2017-05-18T08:26:50.228Z,495
2017-05-18T08:28:04.887Z,485
2017-05-18T08:29:50.340Z,475
2017-05-18T08:30:50.375Z,475
2017-05-18T08:31:50.417Z,465
2017-05-18T08:32:50.456Z,460
2017-05-18T08:33:50.550Z,460
2017-05-18T08:34:50.533Z,455
2017-05-18T08:36:05.187Z,450
2017-05-18T08:36:50.606Z,450
2017-05-18T08:38:05.264Z,450
2017-05-18T08:38:50.678Z,455
2017-05-18T08:40:19.955Z,450
2017-05-18T08:40:50.754Z,445
2017-05-18T08:41:50.791Z,435
2017-05-18T08:44:50.899Z,435
2017-05-18T08:45:50.942Z,440
2017-05-18T08:47:05.604Z,435
2017-05-18T08:47:51.018Z,435
2017-05-18T08:48:51.049Z,440
2017-05-18T08:49:51.089Z,435
2017-05-18T08:51:51.172Z,435
2017-05-18T08:52:51.203Z,430
2017-05-18T08:54:05.860Z,425
2017-05-18T08:54:51.273Z,420
2017-05-18T08:56:05.932Z,420
2017-05-18T08:57:05.969Z,425
2017-05-18T08:57:51.389Z,425
2017-05-18T08:59:51.528Z,425
2017-05-18T09:01:51.536Z,415
2017-05-18T09:02:51.575Z,410
2017-05-18T09:03:51.610Z,400
2017-05-18T09:04:51.696Z,390
2017-05-18T09:05:51.685Z,385
2017-05-18T09:06:51.728Z,370
2017-05-18T09:08:06.383Z,355
2017-05-18T09:09:06.415Z,340
2017-05-18T09:09:51.842Z,330
2017-05-18T09:10:51.871Z,315
2017-05-18T09:11:51.907Z,305
2017-05-18T09:12:51.951Z,300
2017-05-18T09:13:51.986Z,305
2017-05-18T09:14:52.042Z,300
2017-05-18T09:15:51.716Z,305
2017-05-18T09:17:06.685Z,300
2017-05-18T09:17:52.093Z,295
2017-05-18T09:18:52.130Z,295
2017-05-18T09:20:06.486Z,290
2017-05-18T09:20:51.904Z,290
2017-05-18T09:21:52.282Z,290
2017-05-18T09:22:52.349Z,290
2017-05-18T09:23:52.368Z,290
2017-05-18T09:25:07.053Z,290
2017-05-18T09:25:52.193Z,285
2017-05-18T09:27:07.124Z,290
2017-05-18T09:27:52.610Z,290
2017-05-18T09:28:52.565Z,265
2017-05-18T09:29:52.613Z,275
2017-05-18T09:31:21.852Z,270
2017-05-18T09:31:52.682Z,270
2017-05-18T09:32:52.710Z,280
2017-05-18T09:33:52.766Z,280
2017-05-18T09:35:07.396Z,275
2017-05-18T09:36:22.031Z,275
2017-05-18T09:36:52.859Z,275
2017-05-18T09:37:52.878Z,270
2017-05-18T09:39:07.538Z,270
2017-05-18T09:40:53.005Z,280
2017-05-18T09:41:53.018Z,270
2017-05-18T09:42:53.092Z,275
2017-05-18T09:44:07.696Z,270
2017-05-18T09:44:53.158Z,280
2017-05-18T09:45:53.164Z,275
2017-05-18T09:47:07.831Z,270
2017-05-18T09:47:53.229Z,270
2017-05-18T09:48:53.283Z,265
2017-05-18T09:49:53.395Z,265
2017-05-18T09:51:07.957Z,265
2017-05-18T09:51:53.099Z,275
2017-05-18T09:52:53.412Z,275
2017-05-18T09:53:53.494Z,280
2017-05-18T09:55:53.529Z,280
2017-05-18T09:56:53.574Z,280
2017-05-18T09:58:08.221Z,275
2017-05-18T09:58:53.659Z,275
2017-05-18T09:59:53.658Z,275
2017-05-18T10:01:08.329Z,270
2017-05-18T10:02:08.357Z,275
2017-05-18T10:03:08.383Z,270
2017-05-18T10:04:08.441Z,270
2017-05-18T10:05:08.160Z,270
2017-05-18T10:05:53.914Z,270
2017-05-18T10:06:53.922Z,270
2017-05-18T10:07:53.663Z,270
2017-05-18T10:08:53.984Z,270
2017-05-18T10:09:54.040Z,270
2017-05-18T10:10:54.101Z,265
2017-05-18T10:11:53.791Z,265
2017-05-18T10:12:54.130Z,265
2017-05-18T10:13:53.935Z,265
2017-05-18T10:15:08.814Z,260
2017-05-18T10:15:54.260Z,260
2017-05-18T10:17:08.903Z,260
2017-05-18T10:19:08.950Z,255
2017-05-18T10:19:54.436Z,250
2017-05-18T10:20:54.432Z,250
2017-05-18T10:21:54.476Z,250
2017-05-18T10:23:53.911Z,250
2017-05-18T10:25:54.303Z,235
2017-05-18T10:26:54.348Z,240
2017-05-18T10:27:54.662Z,250
2017-05-18T10:28:54.411Z,245
2017-05-18T10:29:54.756Z,245
2017-05-18T10:30:54.506Z,245
2017-05-18T10:32:09.125Z,245
2017-05-18T10:32:54.896Z,245
2017-05-18T10:34:09.497Z,245
2017-05-18T10:34:54.931Z,245
2017-05-18T10:35:54.960Z,245
2017-05-18T10:36:55.007Z,245
2017-05-18T10:37:55.022Z,245
2017-05-18T10:38:54.741Z,240
2017-05-18T10:39:55.083Z,245
2017-05-18T10:40:55.149Z,245
2017-05-18T10:41:55.165Z,240
2017-05-18T10:42:55.210Z,240
2017-05-18T10:43:54.931Z,235
2017-05-18T10:44:55.036Z,225
2017-05-18T10:45:55.006Z,225
2017-05-18T10:46:55.406Z,225
2017-05-18T10:48:09.670Z,230
2017-05-18T10:50:10.077Z,225
2017-05-18T10:50:55.174Z,220
2017-05-18T10:52:10.144Z,220
2017-05-18T10:52:55.535Z,220
2017-05-18T10:53:55.569Z,220
2017-05-18T10:54:55.625Z,215
2017-05-18T10:55:55.355Z,215
2017-05-18T10:56:55.390Z,215
2017-05-18T10:57:55.714Z,215
2017-05-18T10:59:10.378Z,215
2017-05-18T10:59:55.786Z,215
2017-05-18T11:01:55.547Z,210
2017-05-18T11:02:55.939Z,215
2017-05-18T11:03:55.908Z,215
2017-05-18T11:04:55.969Z,210
2017-05-18T11:06:10.609Z,215
2017-05-18T11:07:10.338Z,210
2017-05-18T11:07:56.060Z,205
2017-05-18T11:09:25.324Z,205
2017-05-18T11:10:10.432Z,205
2017-05-18T11:11:10.455Z,205
2017-05-18T11:11:55.934Z,205
2017-05-18T11:12:55.919Z,205
2017-05-18T11:13:56.293Z,205
2017-05-18T11:15:10.922Z,205
2017-05-18T11:15:56.008Z,205
2017-05-18T11:16:56.359Z,205
2017-05-18T11:18:10.993Z,200
2017-05-18T11:18:56.132Z,200
2017-05-18T11:19:56.457Z,200
2017-05-18T11:20:56.521Z,205
2017-05-18T11:22:10.832Z,200
2017-05-18T11:22:56.569Z,195
2017-05-18T11:23:56.609Z,195
2017-05-18T11:24:56.617Z,195
2017-05-18T11:26:11.279Z,190
2017-05-18T11:26:56.676Z,190
2017-05-18T11:27:56.751Z,190
2017-05-18T11:28:56.764Z,190
2017-05-18T11:29:56.512Z,190
2017-05-18T11:30:56.825Z,185
2017-05-18T11:31:56.557Z,185
2017-05-18T11:32:56.906Z,180
2017-05-18T11:33:56.921Z,180
2017-05-18T11:35:11.566Z,180
2017-05-18T11:36:11.002Z,180
2017-05-18T11:36:57.010Z,180
2017-05-18T11:38:11.376Z,180
2017-05-18T11:38:57.093Z,165
2017-05-18T11:40:11.441Z,155
2017-05-18T11:41:11.770Z,155
2017-05-18T11:42:11.788Z,170
2017-05-18T11:42:57.242Z,170
2017-05-18T11:43:57.252Z,175
2017-05-18T11:44:57.318Z,180
2017-05-18T11:45:57.313Z,175
2017-05-18T11:46:57.056Z,175
2017-05-18T11:48:57.427Z,175
2017-05-18T11:49:57.459Z,175
2017-05-18T11:50:57.192Z,175
2017-05-18T11:51:57.533Z,175
2017-05-18T11:52:57.534Z,175
2017-05-18T11:54:12.209Z,175
2017-05-18T11:55:12.217Z,175
2017-05-18T11:55:57.649Z,175
2017-05-18T11:56:57.734Z,175
2017-05-18T11:57:57.415Z,175
2017-05-18T11:58:57.737Z,175
2017-05-18T11:59:57.466Z,180
2017-05-18T12:00:57.818Z,180
2017-05-18T12:01:57.874Z,180
2017-05-18T12:02:57.863Z,180
2017-05-18T12:03:57.908Z,175
2017-05-18T12:06:12.585Z,175
2017-05-18T12:07:12.612Z,175
2017-05-18T12:09:12.705Z,175
2017-05-18T12:09:57.809Z,175
2017-05-18T12:10:57.850Z,170
2017-05-18T12:11:58.149Z,170
2017-05-18T12:13:12.805Z,170
2017-05-18T12:14:12.859Z,170
2017-05-18T12:15:12.874Z,170
2017-05-18T12:15:58.015Z,170
2017-05-18T12:17:12.938Z,170
2017-05-18T12:17:58.373Z,170
2017-05-18T12:18:58.399Z,170
2017-05-18T12:19:58.502Z,170
2017-05-18T12:21:12.785Z,170
2017-05-18T12:21:58.480Z,170
2017-05-18T12:22:58.547Z,170
2017-05-18T12:23:58.563Z,170
2017-05-18T12:25:13.218Z,170
2017-05-18T12:25:58.605Z,165
2017-05-18T12:27:13.281Z,170
2017-05-18T12:28:13.314Z,165
2017-05-18T12:29:58.754Z,170
2017-05-18T12:30:58.795Z,170
2017-05-18T12:31:58.814Z,170
2017-05-18T12:32:58.884Z,170
2017-05-18T12:33:58.901Z,170
2017-05-18T12:35:13.227Z,170
2017-05-18T12:35:58.946Z,170
2017-05-18T12:36:58.995Z,170
2017-05-18T12:37:59.045Z,170
2017-05-18T12:38:59.058Z,170
2017-05-18T12:39:59.102Z,170
2017-05-18T12:41:13.727Z,165
2017-05-18T12:41:58.851Z,165
2017-05-18T12:42:58.874Z,165
2017-05-18T12:44:58.949Z,170
2017-05-18T12:45:58.972Z,170
2017-05-18T12:46:59.332Z,170
2017-05-18T12:47:59.345Z,170
2017-05-18T12:48:59.397Z,170
2017-05-18T12:49:59.092Z,170
2017-05-18T12:50:58.839Z,170
2017-05-18T12:51:59.467Z,165
2017-05-18T12:52:59.537Z,170
2017-05-18T12:54:14.151Z,175
2017-05-18T12:54:59.569Z,170
2017-05-18T12:55:59.612Z,170
2017-05-18T12:57:13.952Z,170
2017-05-18T12:57:59.364Z,170
2017-05-18T12:58:59.400Z,170
2017-05-18T13:00:14.349Z,170
2017-05-18T13:00:59.463Z,170
2017-05-18T13:03:14.457Z,170
2017-05-18T13:03:59.881Z,170
2017-05-18T13:04:59.592Z,170
2017-05-18T13:05:59.931Z,170
2017-05-18T13:06:59.656Z,170
2017-05-18T13:08:14.616Z,170
2017-05-18T13:09:00.019Z,170
2017-05-18T13:10:00.074Z,170
2017-05-18T13:11:00.093Z,170
2017-05-18T13:12:00.163Z,170
2017-05-18T13:13:14.452Z,170
2017-05-18T13:14:00.166Z,170
2017-05-18T13:15:14.839Z,170
2017-05-18T13:16:00.222Z,170
2017-05-18T13:17:00.293Z,170
2017-05-18T13:18:00.320Z,170
2017-05-18T13:19:00.351Z,170
2017-05-18T13:19:59.764Z,175
2017-05-18T13:22:00.447Z,170
2017-05-18T13:23:00.547Z,170
2017-05-18T13:24:00.496Z,170
2017-05-18T13:25:15.164Z,170
2017-05-18T13:26:00.555Z,170
2017-05-18T13:27:00.619Z,170
2017-05-18T13:28:00.631Z,170
2017-05-18T13:29:15.287Z,170
2017-05-18T13:30:00.689Z,170
2017-05-18T13:31:15.390Z,170
2017-05-18T13:32:00.781Z,170
2017-05-18T13:33:00.795Z,170
2017-05-18T13:34:00.850Z,170
2017-05-18T13:35:00.854Z,165
2017-05-18T13:36:00.918Z,165
2017-05-18T13:37:15.538Z,165
2017-05-18T13:38:15.264Z,165
2017-05-18T13:39:00.996Z,165
2017-05-18T13:40:30.231Z,165
2017-05-18T13:41:00.766Z,165
2017-05-18T13:42:01.101Z,165
2017-05-18T13:43:00.826Z,165
2017-05-18T13:44:15.746Z,165
2017-05-18T13:45:01.197Z,165
2017-05-18T13:46:01.220Z,165
2017-05-18T13:47:15.239Z,165
2017-05-18T13:48:01.283Z,165
2017-05-18T13:49:01.324Z,165
2017-05-18T13:50:01.393Z,165
2017-05-18T13:51:01.387Z,170
2017-05-18T13:52:01.422Z,170
2017-05-18T13:53:01.458Z,170
2017-05-18T13:54:01.454Z,165
2017-05-18T13:55:01.495Z,165
2017-05-18T13:56:01.528Z,175
2017-05-18T13:57:01.580Z,165
2017-05-18T13:58:01.622Z,165
2017-05-18T13:59:01.642Z,165
2017-05-18T14:00:01.671Z,165
2017-05-18T14:01:01.399Z,165
2017-05-18T14:02:01.736Z,165
2017-05-18T14:03:16.077Z,165
2017-05-18T14:04:01.482Z,165
2017-05-18T14:05:01.824Z,165
2017-05-18T14:07:01.893Z,165
2017-05-18T14:08:01.945Z,165
2017-05-18T14:09:01.662Z,165
2017-05-18T14:10:01.984Z,170
2017-05-18T14:11:02.061Z,170
2017-05-18T14:12:01.459Z,170
2017-05-18T14:13:16.685Z,165
2017-05-18T14:14:01.816Z,165
2017-05-18T14:15:01.857Z,170
2017-05-18T14:16:16.782Z,165
2017-05-18T14:17:01.918Z,165
2017-05-18T14:18:01.960Z,165
2017-05-18T14:19:01.974Z,165
2017-05-18T14:20:01.705Z,160
2017-05-18T14:21:01.727Z,160
2017-05-18T14:22:01.771Z,160
2017-05-18T14:23:02.076Z,160
2017-05-18T14:24:16.743Z,160
2017-05-18T14:25:17.093Z,160
2017-05-18T14:26:02.504Z,160
2017-05-18T14:27:02.524Z,160
2017-05-18T14:28:02.246Z,165
2017-05-18T14:29:02.002Z,160
2017-05-18T14:30:16.933Z,160
2017-05-18T14:31:02.676Z,160
2017-05-18T14:32:17.304Z,160
2017-05-18T14:33:02.731Z,160
2017-05-18T14:34:02.734Z,160
2017-05-18T14:35:02.784Z,160
2017-05-18T14:36:02.810Z,160
2017-05-18T14:37:02.846Z,160
2017-05-18T14:38:02.903Z,160
2017-05-18T14:39:02.907Z,160
2017-05-18T14:40:02.951Z,160
2017-05-18T14:41:02.985Z,160
2017-05-18T14:42:03.002Z,160
2017-05-18T14:43:03.071Z,160
2017-05-18T14:44:03.059Z,160
2017-05-18T14:45:17.728Z,160
2017-05-18T14:46:17.749Z,160
2017-05-18T14:48:17.213Z,160
2017-05-18T14:49:03.230Z,155
2017-05-18T14:50:03.281Z,160
2017-05-18T14:51:03.292Z,155
2017-05-18T14:52:03.337Z,155
2017-05-18T14:53:03.349Z,155
2017-05-18T14:54:03.408Z,160